首页
METAR-TAF:

METAR-TAF

机场 :

大急流城, 密歇根州, 美国

纬度: 42-52-51N, 经度: 085-31-22W, 海拔: 242米

当前天气观测

该预报发布于29分钟前的02:53 UTC
风速5节,风向
温度 -12°C
湿度 85%
气压 1033 hPa
能見度: 16.1公里
天空无云

METAR: KGRR 120253Z 17005KT 10SM CLR M12/M14 A3051 RMK AO2 SLP349 T11171144 51005

时间: 22:22 (03:22 UTC)

预报

该预报发布于3小时和42分钟前的23:40 UTC
预报有效从12日的 00点(UTC)到 12日的 24点(UTC)
风速4节,风向多变
能見度: 10公里
散云层高于2500英尺
从 12日的 1500点(UTC)
风速10节,风向南转南东,有时为18节阵风
能見度: 10公里
多云层高于10000英尺
从 12日的 2000点(UTC)
风速12节,风向,有时为29节阵风
能見度: 10公里
多云层高于8000英尺

TAF: KGRR 112340Z 1200/1224 VRB04KT P6SM SCT025 FM121500 15010G18KT P6SM BKN100 FM122000 19012G29KT P6SM BKN080 WS020/21045KT

超过4000个机场的气象观测和天气预报(METAR&TAF报告)。

可查询的气象台以黄色和红色小点在地图上表示。

将鼠标移到小点上方,可查看气象台名称。

然后点击查看天气观测和预报。

如需切换地图:点击带黑十字的绿色按钮放大地图;点击带横线的绿色按钮缩小地图;或者点击绿色箭头查看邻近地区的地图。


METAR-TAF: